aviador You're here:

RJOO Decoded Metar

OSAKA in JAPAN
Report Time2014-11-28 08:00:00
UTC Time2014-11-28 08:14:04
Flight Rules vfr VFR
Wind100° at 04 kt
W.Decomp.*RWY 14: 3.4 kt HW 2.2 kt LCW
W.Rank100° ranks 27
Current wind is below 100° avg. (5.5)
Visibility9999 m
Phenomena:N/A
Clouds:Few 025 Hf
Expected CloudBase > 2,800 ft AGL from Temp-Dew spread
CeilingNone
Temp17°C (ISA +2)
Dew Point10°C (64% RH)
AAT15.6°C
QNH1019 hPa
Density Alt259 ft
Elevation49 ft
Report Wrong Elevation
Raw Report
RJOO 280800Z 10004KT 060V150 9999 FEW025 BKN/// 17/10 Q1019 RMK
1CU025 A3010=

Extra information for RJOO:More info

Metar Taf Metar & Taf Last 4 Metars F.Rules Stats Wind Profile Meteogram Temp Stats Airport Information Weather charts Add Link Nearby VenuesMetar ALERT Operation Metar Decoded Social comments